Time,TemperatureF,DewpointF,PressureIn,WindDirection,WindDirectionDegrees,WindSpeedMPH,WindSpeedGustMPH,Humidity,HourlyPrecipIn,Conditions,Clouds,dailyrainin,SoftwareType,DateUTC
2013-10-10 00:03:00,47.1,34.4,29.93,North,353,0.0,0.0,61,0.00,,,0.00,VWS V13.01,2013-10-10 06:03:00,
2013-10-10 00:08:00,47.1,34.8,29.93,North,353,0.0,0.0,62,0.00,,,0.00,VWS V13.01,2013-10-10 06:08:00,
2013-10-10 00:13:00,46.9,34.6,29.93,North,353,0.0,0.0,62,0.00,,,0.00,VWS V13.01,2013-10-10 06:13:00,
2013-10-10 00:18:00,46.8,34.8,29.93,North,353,0.0,0.0,63,0.00,,,0.00,VWS V13.01,2013-10-10 06:18:00,
2013-10-10 00:23:00,46.6,35.1,29.93,North,353,0.0,0.0,64,0.00,,,0.00,VWS V13.01,2013-10-10 06:23:00,
2013-10-10 00:29:00,46.6,35.5,29.93,North,353,0.0,0.0,65,0.00,,,0.00,VWS V13.01,2013-10-10 06:29:00,
2013-10-10 00:34:00,46.4,35.3,29.93,North,353,0.0,0.0,65,0.00,,,0.00,VWS V13.01,2013-10-10 06:34:00,
2013-10-10 00:39:00,46.2,35.5,29.93,North,353,0.0,0.0,66,0.00,,,0.00,VWS V13.01,2013-10-10 06:39:00,
2013-10-10 00:44:00,46.2,35.9,29.93,North,353,0.0,0.0,67,0.00,,,0.00,VWS V13.01,2013-10-10 06:44:00,
2013-10-10 00:49:00,46.2,35.9,29.93,North,353,0.0,0.0,67,0.00,,,0.00,VWS V13.01,2013-10-10 06:49:00,
2013-10-10 00:54:00,46.0,35.7,29.93,North,353,0.0,0.0,67,0.00,,,0.00,VWS V13.01,2013-10-10 06:54:00,
2013-10-10 00:59:00,46.0,36.1,29.93,North,353,0.0,0.0,68,0.00,,,0.00,VWS V13.01,2013-10-10 06:59:00,
2013-10-10 01:04:00,45.9,35.9,29.93,North,353,0.0,0.0,68,0.00,,,0.00,VWS V13.01,2013-10-10 07:04:00,
2013-10-10 01:09:00,45.7,36.1,29.93,North,353,0.0,0.0,69,0.00,,,0.00,VWS V13.01,2013-10-10 07:09:00,
2013-10-10 01:14:00,45.7,36.1,29.93,North,353,0.0,0.0,69,0.00,,,0.00,VWS V13.01,2013-10-10 07:14:00,
2013-10-10 01:19:00,45.7,36.5,29.93,North,353,0.0,0.0,70,0.00,,,0.00,VWS V13.01,2013-10-10 07:19:00,
2013-10-10 01:24:00,45.7,36.5,29.93,North,353,0.0,0.0,70,0.00,,,0.00,VWS V13.01,2013-10-10 07:24:00,
2013-10-10 01:29:00,45.7,36.8,29.93,North,357,0.0,3.1,71,0.00,,,0.00,VWS V13.01,2013-10-10 07:29:00,
2013-10-10 01:34:00,45.9,37.0,29.93,North,357,0.0,0.0,71,0.00,,,0.00,VWS V13.01,2013-10-10 07:34:00,
2013-10-10 01:39:00,45.9,37.0,29.93,North,357,0.0,0.0,71,0.00,,,0.00,VWS V13.01,2013-10-10 07:39:00,
2013-10-10 01:44:00,45.9,37.4,29.93,North,357,0.0,0.0,72,0.00,,,0.00,VWS V13.01,2013-10-10 07:44:00,
2013-10-10 01:49:00,45.9,37.4,29.93,North,357,0.0,0.0,72,0.00,,,0.00,VWS V13.01,2013-10-10 07:49:00,
2013-10-10 01:54:00,45.9,37.4,29.93,North,357,0.0,0.0,72,0.00,,,0.00,VWS V13.01,2013-10-10 07:54:00,
2013-10-10 01:59:00,45.9,37.4,29.90,North,357,0.0,0.0,72,0.00,,,0.00,VWS V13.01,2013-10-10 07:59:00,
2013-10-10 02:04:00,45.7,37.2,29.90,North,357,0.0,0.0,72,0.00,,,0.00,VWS V13.01,2013-10-10 08:04:00,
2013-10-10 02:09:00,45.7,37.5,29.90,North,357,0.0,0.0,73,0.00,,,0.00,VWS V13.01,2013-10-10 08:09:00,
2013-10-10 02:14:00,45.5,37.4,29.90,North,357,0.0,0.0,73,0.00,,,0.00,VWS V13.01,2013-10-10 08:14:00,
2013-10-10 02:19:00,45.5,37.4,29.90,North,357,0.0,0.0,73,0.00,,,0.00,VWS V13.01,2013-10-10 08:19:00,
2013-10-10 02:24:00,45.3,37.2,29.90,North,357,0.0,0.0,73,0.00,,,0.00,VWS V13.01,2013-10-10 08:24:00,
2013-10-10 02:29:00,45.3,37.2,29.90,North,357,0.0,0.0,73,0.00,,,0.00,VWS V13.01,2013-10-10 08:29:00,
2013-10-10 02:34:00,45.1,37.4,29.90,North,357,0.0,0.0,74,0.00,,,0.00,VWS V13.01,2013-10-10 08:34:00,
2013-10-10 02:39:00,45.0,36.8,29.90,North,357,0.0,0.0,73,0.00,,,0.00,VWS V13.01,2013-10-10 08:39:00,
2013-10-10 02:44:00,44.8,37.0,29.90,North,357,0.0,0.0,74,0.00,,,0.00,VWS V13.01,2013-10-10 08:44:00,
2013-10-10 02:49:00,44.6,36.8,29.90,North,357,0.0,0.0,74,0.00,,,0.00,VWS V13.01,2013-10-10 08:49:00,
2013-10-10 02:54:00,44.4,36.7,29.90,North,357,0.0,0.0,74,0.00,,,0.00,VWS V13.01,2013-10-10 08:54:00,
2013-10-10 02:59:00,44.2,36.5,29.87,North,357,0.0,0.0,74,0.00,,,0.00,VWS V13.01,2013-10-10 08:59:00,
2013-10-10 03:04:00,44.2,36.5,29.87,North,357,0.0,0.0,74,0.00,,,0.00,VWS V13.01,2013-10-10 09:04:00,
2013-10-10 03:09:00,44.1,36.7,29.87,North,357,0.0,0.0,75,0.00,,,0.00,VWS V13.01,2013-10-10 09:09:00,
2013-10-10 03:14:00,43.9,36.5,29.87,North,357,0.0,0.0,75,0.00,,,0.00,VWS V13.01,2013-10-10 09:14:00,
2013-10-10 03:19:00,43.7,36.3,29.87,North,357,0.0,0.0,75,0.00,,,0.00,VWS V13.01,2013-10-10 09:19:00,
2013-10-10 03:24:00,43.7,36.3,29.87,North,357,0.0,0.0,75,0.00,,,0.00,VWS V13.01,2013-10-10 09:24:00,
2013-10-10 03:29:00,43.5,36.1,29.87,North,357,0.0,0.0,75,0.00,,,0.00,VWS V13.01,2013-10-10 09:29:00,
2013-10-10 03:34:00,43.3,36.0,29.87,North,357,0.0,0.0,75,0.00,,,0.00,VWS V13.01,2013-10-10 09:34:00,
2013-10-10 03:39:00,43.5,36.5,29.87,North,357,0.0,0.0,76,0.00,,,0.00,VWS V13.01,2013-10-10 09:39:00,
2013-10-10 03:44:00,43.3,36.3,29.87,North,357,0.0,0.0,76,0.00,,,0.00,VWS V13.01,2013-10-10 09:44:00,
2013-10-10 03:49:00,43.3,36.3,29.87,North,357,0.0,0.0,76,0.00,,,0.00,VWS V13.01,2013-10-10 09:49:00,
2013-10-10 03:54:00,43.0,36.0,29.87,North,357,0.0,0.0,76,0.00,,,0.00,VWS V13.01,2013-10-10 09:54:00,
2013-10-10 03:59:00,42.8,35.8,29.87,North,357,0.0,0.0,76,0.00,,,0.00,VWS V13.01,2013-10-10 09:59:00,
2013-10-10 04:04:00,42.8,35.8,29.87,North,357,0.0,0.0,76,0.00,,,0.00,VWS V13.01,2013-10-10 10:04:00,
2013-10-10 04:09:00,42.6,35.6,29.87,North,357,0.0,0.0,76,0.00,,,0.00,VWS V13.01,2013-10-10 10:09:00,
2013-10-10 04:14:00,42.6,35.9,29.84,North,357,0.0,0.0,77,0.00,,,0.00,VWS V13.01,2013-10-10 10:14:00,
2013-10-10 04:20:00,42.4,35.8,29.84,North,357,0.0,0.0,77,0.00,,,0.00,VWS V13.01,2013-10-10 10:20:00,
2013-10-10 04:25:00,42.4,35.8,29.84,North,357,0.0,0.0,77,0.00,,,0.00,VWS V13.01,2013-10-10 10:25:00,
2013-10-10 04:30:00,42.4,35.8,29.84,North,357,0.0,0.0,77,0.00,,,0.00,VWS V13.01,2013-10-10 10:30:00,
2013-10-10 04:35:00,42.4,35.8,29.84,North,357,0.0,0.0,77,0.00,,,0.00,VWS V13.01,2013-10-10 10:35:00,
2013-10-10 04:40:00,42.4,35.8,29.84,North,357,0.0,0.0,77,0.00,,,0.00,VWS V13.01,2013-10-10 10:40:00,
2013-10-10 04:45:00,42.4,35.8,29.84,North,357,0.0,0.0,77,0.00,,,0.00,VWS V13.01,2013-10-10 10:45:00,
2013-10-10 04:50:00,42.4,36.1,29.84,North,357,0.0,0.0,78,0.00,,,0.00,VWS V13.01,2013-10-10 10:50:00,
2013-10-10 04:55:00,42.4,36.1,29.84,North,357,0.0,0.0,78,0.00,,,0.00,VWS V13.01,2013-10-10 10:55:00,
2013-10-10 05:00:00,42.4,36.1,29.84,North,357,0.0,0.0,78,0.00,,,0.00,VWS V13.01,2013-10-10 11:00:00,
2013-10-10 05:05:00,42.4,36.1,29.84,North,357,0.0,0.0,78,0.00,,,0.00,VWS V13.01,2013-10-10 11:05:00,
2013-10-10 05:10:00,42.3,35.9,29.84,North,357,0.0,0.0,78,0.00,,,0.00,VWS V13.01,2013-10-10 11:10:00,
2013-10-10 05:15:00,42.4,36.1,29.84,North,357,0.0,0.0,78,0.00,,,0.00,VWS V13.01,2013-10-10 11:15:00,
2013-10-10 05:20:00,42.4,36.4,29.84,North,357,0.0,0.0,79,0.00,,,0.00,VWS V13.01,2013-10-10 11:20:00,
2013-10-10 05:25:00,42.4,36.4,29.84,North,357,0.0,0.0,79,0.00,,,0.00,VWS V13.01,2013-10-10 11:25:00,
2013-10-10 05:30:00,42.3,36.2,29.81,North,357,0.0,0.0,79,0.00,,,0.00,VWS V13.01,2013-10-10 11:30:00,
2013-10-10 05:35:00,42.3,36.2,29.81,North,357,0.0,0.0,79,0.00,,,0.00,VWS V13.01,2013-10-10 11:35:00,
2013-10-10 05:40:00,42.3,36.2,29.81,North,357,0.0,0.0,79,0.00,,,0.00,VWS V13.01,2013-10-10 11:40:00,
2013-10-10 05:45:00,42.3,36.2,29.81,North,357,0.0,0.0,79,0.00,,,0.00,VWS V13.01,2013-10-10 11:45:00,
2013-10-10 05:50:00,42.3,36.5,29.81,North,357,0.0,0.0,80,0.00,,,0.00,VWS V13.01,2013-10-10 11:50:00,
2013-10-10 05:55:00,42.3,36.5,29.81,North,357,0.0,0.0,80,0.00,,,0.00,VWS V13.01,2013-10-10 11:55:00,
2013-10-10 06:00:00,42.3,36.5,29.81,North,357,0.0,0.0,80,0.00,,,0.00,VWS V13.01,2013-10-10 12:00:00,
2013-10-10 06:05:00,42.1,36.4,29.81,North,357,0.0,0.0,80,0.00,,,0.00,VWS V13.01,2013-10-10 12:05:00,
2013-10-10 06:10:00,42.1,36.4,29.81,North,357,0.0,0.0,80,0.00,,,0.00,VWS V13.01,2013-10-10 12:10:00,
2013-10-10 06:15:00,42.1,36.4,29.81,North,357,0.0,0.0,80,0.00,,,0.00,VWS V13.01,2013-10-10 12:15:00,
2013-10-10 06:20:00,42.1,36.4,29.81,North,357,0.0,0.0,80,0.00,,,0.00,VWS V13.01,2013-10-10 12:20:00,
2013-10-10 06:25:00,42.1,36.4,29.81,North,357,0.0,0.0,80,0.00,,,0.00,VWS V13.01,2013-10-10 12:25:00,
2013-10-10 06:30:00,41.9,36.5,29.81,North,357,0.0,0.0,81,0.00,,,0.00,VWS V13.01,2013-10-10 12:30:00,
2013-10-10 06:35:00,41.9,36.5,29.81,North,357,0.0,0.0,81,0.00,,,0.00,VWS V13.01,2013-10-10 12:35:00,
2013-10-10 06:40:00,41.9,36.5,29.81,North,357,0.0,0.0,81,0.00,,,0.00,VWS V13.01,2013-10-10 12:40:00,
2013-10-10 06:45:00,41.7,36.3,29.81,North,357,0.0,0.0,81,0.00,,,0.00,VWS V13.01,2013-10-10 12:45:00,
2013-10-10 06:50:00,41.7,36.3,29.81,North,357,0.0,0.0,81,0.00,,,0.00,VWS V13.01,2013-10-10 12:50:00,
2013-10-10 06:55:00,41.7,36.3,29.81,North,357,0.0,0.0,81,0.00,,,0.00,VWS V13.01,2013-10-10 12:55:00,
2013-10-10 07:00:00,41.7,36.3,29.81,North,357,0.0,0.0,81,0.00,,,0.00,VWS V13.01,2013-10-10 13:00:00,
2013-10-10 07:05:00,41.7,36.3,29.81,North,357,0.0,0.0,81,0.00,,CLR,0.00,VWS V13.01,2013-10-10 13:05:00,
2013-10-10 07:10:00,41.7,36.3,29.81,North,357,0.0,0.0,81,0.00,,CLR,0.00,VWS V13.01,2013-10-10 13:10:00,
2013-10-10 07:15:00,41.7,36.6,29.81,North,357,0.0,0.0,82,0.00,,CLR,0.00,VWS V13.01,2013-10-10 13:15:00,
2013-10-10 07:20:00,41.7,36.6,29.81,North,357,0.0,0.0,82,0.00,,CLR,0.00,VWS V13.01,2013-10-10 13:20:00,
2013-10-10 07:25:00,41.7,36.6,29.81,North,357,0.0,0.0,82,0.00,,CLR,0.00,VWS V13.01,2013-10-10 13:25:00,
2013-10-10 07:30:00,41.7,36.6,29.81,North,357,0.0,0.0,82,0.00,,CLR,0.00,VWS V13.01,2013-10-10 13:30:00,
2013-10-10 07:35:00,41.9,36.8,29.81,North,357,0.0,0.0,82,0.00,,CLR,0.00,VWS V13.01,2013-10-10 13:35:00,
2013-10-10 07:40:00,42.1,37.0,29.81,North,357,0.0,0.0,82,0.00,,CLR,0.00,VWS V13.01,2013-10-10 13:40:00,
2013-10-10 07:46:00,42.3,37.2,29.78,North,357,0.0,0.0,82,0.00,,CLR,0.00,VWS V13.01,2013-10-10 13:46:00,
2013-10-10 07:51:00,42.4,37.7,29.78,North,357,0.0,0.0,83,0.00,,CLR,0.00,VWS V13.01,2013-10-10 13:51:00,
2013-10-10 07:56:00,42.6,37.8,29.78,North,357,0.0,0.0,83,0.00,,CLR,0.00,VWS V13.01,2013-10-10 13:56:00,
2013-10-10 08:01:00,43.0,38.2,29.78,North,357,0.0,0.0,83,0.00,,CLR,0.00,VWS V13.01,2013-10-10 14:01:00,
2013-10-10 08:06:00,43.3,38.5,29.78,North,357,0.0,0.0,83,0.00,,CLR,0.00,VWS V13.01,2013-10-10 14:06:00,
2013-10-10 08:11:00,43.5,38.7,29.78,North,357,0.0,0.0,83,0.00,,CLR,0.00,VWS V13.01,2013-10-10 14:11:00,
2013-10-10 08:16:00,44.1,39.2,29.78,North,357,0.0,0.0,83,0.00,,CLR,0.00,VWS V13.01,2013-10-10 14:16:00,
2013-10-10 08:21:00,44.8,40.2,29.78,WNW,299,0.0,2.7,84,0.00,,CLR,0.00,VWS V13.01,2013-10-10 14:21:00,
2013-10-10 08:26:00,45.5,41.0,29.78,WNW,300,0.0,3.1,84,0.00,,CLR,0.00,VWS V13.01,2013-10-10 14:26:00,
2013-10-10 08:31:00,46.4,41.8,29.78,WNW,299,0.0,2.7,84,0.00,,CLR,0.00,VWS V13.01,2013-10-10 14:31:00,
2013-10-10 08:36:00,47.1,42.5,29.78,West,267,2.7,3.1,84,0.00,,CLR,0.00,VWS V13.01,2013-10-10 14:36:00,
2013-10-10 08:41:00,47.8,43.2,29.78,NE,43,0.0,3.1,84,0.00,,CLR,0.00,VWS V13.01,2013-10-10 14:41:00,
2013-10-10 08:46:00,48.4,43.5,29.78,NE,43,0.0,0.0,83,0.00,,CLR,0.00,VWS V13.01,2013-10-10 14:46:00,
2013-10-10 08:51:00,48.4,43.2,29.78,NW,308,0.0,3.6,82,0.00,,CLR,0.00,VWS V13.01,2013-10-10 14:51:00,
2013-10-10 08:56:00,48.2,42.7,29.78,NW,308,0.0,3.6,81,0.00,,CLR,0.00,VWS V13.01,2013-10-10 14:56:00,
2013-10-10 09:01:00,48.2,42.3,29.78,NW,307,2.7,2.7,80,0.00,,CLR,0.00,VWS V13.01,2013-10-10 15:01:00,
2013-10-10 09:06:00,48.4,41.8,29.78,WNW,292,2.2,4.9,78,0.00,,CLR,0.00,VWS V13.01,2013-10-10 15:06:00,
2013-10-10 09:11:00,48.9,42.0,29.75,NNW,329,0.0,4.9,77,0.00,,CLR,0.00,VWS V13.01,2013-10-10 15:11:00,
2013-10-10 09:16:00,49.3,42.0,29.75,West,271,0.0,2.2,76,0.00,,CLR,0.00,VWS V13.01,2013-10-10 15:16:00,
2013-10-10 09:21:00,50.2,42.6,29.75,West,271,0.0,2.2,75,0.00,,CLR,0.00,VWS V13.01,2013-10-10 15:21:00,
2013-10-10 09:26:00,50.4,41.3,29.75,WNW,288,2.2,4.9,71,0.00,,CLR,0.00,VWS V13.01,2013-10-10 15:26:00,
2013-10-10 09:31:00,50.7,41.7,29.75,East,83,0.0,0.0,71,0.00,,CLR,0.00,VWS V13.01,2013-10-10 15:31:00,
2013-10-10 09:36:00,50.9,41.1,29.75,WNW,301,0.0,3.1,69,0.00,,CLR,0.00,VWS V13.01,2013-10-10 15:36:00,
2013-10-10 09:41:00,51.1,40.9,29.75,East,84,0.0,3.1,68,0.00,,CLR,0.00,VWS V13.01,2013-10-10 15:41:00,
2013-10-10 09:46:00,52.2,41.5,29.75,NNW,339,2.2,2.2,67,0.00,,CLR,0.00,VWS V13.01,2013-10-10 15:46:00,
2013-10-10 09:51:00,52.9,41.5,29.75,WNW,287,2.7,3.6,65,0.00,,CLR,0.00,VWS V13.01,2013-10-10 15:51:00,
2013-10-10 09:56:00,53.1,40.4,29.75,ENE,72,2.2,3.6,62,0.00,,CLR,0.00,VWS V13.01,2013-10-10 15:56:00,
2013-10-10 10:01:00,53.1,39.1,29.75,ENE,65,0.0,0.0,59,0.00,,CLR,0.00,VWS V13.01,2013-10-10 16:01:00,
2013-10-10 10:06:00,53.2,38.4,29.75,NW,312,0.0,3.6,57,0.00,,CLR,0.00,VWS V13.01,2013-10-10 16:06:00,
2013-10-10 10:11:00,53.4,37.7,29.75,West,262,2.7,3.6,55,0.00,,CLR,0.00,VWS V13.01,2013-10-10 16:11:00,
2013-10-10 10:16:00,53.2,36.6,29.75,WSW,253,0.0,0.0,53,0.00,,CLR,0.00,VWS V13.01,2013-10-10 16:16:00,
2013-10-10 10:21:00,54.1,36.9,29.75,ESE,114,0.0,3.6,52,0.00,,CLR,0.00,VWS V13.01,2013-10-10 16:21:00,
2013-10-10 10:26:00,54.9,37.1,29.72,WNW,295,0.0,3.6,51,0.00,,CLR,0.00,VWS V13.01,2013-10-10 16:26:00,
2013-10-10 10:31:00,55.2,36.9,29.72,ENE,74,0.0,3.1,50,0.00,,CLR,0.00,VWS V13.01,2013-10-10 16:31:00,
2013-10-10 10:36:00,55.9,37.1,29.72,ENE,75,0.0,3.1,49,0.00,,CLR,0.00,VWS V13.01,2013-10-10 16:36:00,
2013-10-10 10:41:00,56.8,36.3,29.72,ESE,120,2.2,3.6,46,0.00,,CLR,0.00,VWS V13.01,2013-10-10 16:41:00,
2013-10-10 10:46:00,57.0,35.9,29.72,ESE,115,2.2,2.7,45,0.00,,CLR,0.00,VWS V13.01,2013-10-10 16:46:00,
2013-10-10 10:52:00,57.0,35.3,29.72,NW,325,2.2,4.0,44,0.00,,CLR,0.00,VWS V13.01,2013-10-10 16:52:00,
2013-10-10 10:57:00,56.7,33.8,29.72,WNW,282,2.2,4.0,42,0.00,,CLR,0.00,VWS V13.01,2013-10-10 16:57:00,
2013-10-10 11:02:00,56.8,34.6,29.72,NW,326,3.6,4.0,43,0.00,,CLR,0.00,VWS V13.01,2013-10-10 17:02:00,
2013-10-10 11:07:00,56.8,34.6,29.72,WNW,287,2.7,4.0,43,0.00,,CLR,0.00,VWS V13.01,2013-10-10 17:07:00,
2013-10-10 11:12:00,57.0,35.3,29.72,ENE,59,0.0,4.0,44,0.00,,CLR,0.00,VWS V13.01,2013-10-10 17:12:00,
2013-10-10 11:17:00,57.9,36.2,29.72,ESE,110,2.2,2.2,44,0.00,,CLR,0.00,VWS V13.01,2013-10-10 17:17:00,
2013-10-10 11:22:00,58.5,34.9,29.72,ESE,123,0.0,5.4,41,0.00,,CLR,0.00,VWS V13.01,2013-10-10 17:22:00,
2013-10-10 11:27:00,59.2,36.1,29.69,NNE,22,0.0,5.4,42,0.00,,CLR,0.00,VWS V13.01,2013-10-10 17:27:00,
2013-10-10 11:32:00,59.7,36.0,29.69,NNW,335,0.0,0.0,41,0.00,,CLR,0.00,VWS V13.01,2013-10-10 17:32:00,
2013-10-10 11:37:00,60.1,35.1,29.69,ESE,105,2.2,4.0,39,0.00,,CLR,0.00,VWS V13.01,2013-10-10 17:37:00,
2013-10-10 11:42:00,59.9,34.2,29.69,East,100,0.0,4.0,38,0.00,,CLR,0.00,VWS V13.01,2013-10-10 17:42:00,
2013-10-10 11:47:00,59.9,34.2,29.69,ESE,117,2.7,3.6,38,0.00,,CLR,0.00,VWS V13.01,2013-10-10 17:47:00,
2013-10-10 11:52:00,60.3,34.6,29.69,North,9,0.0,3.6,38,0.00,,CLR,0.00,VWS V13.01,2013-10-10 17:52:00,
2013-10-10 11:57:00,60.6,34.2,29.66,NE,38,5.4,5.8,37,0.00,,CLR,0.00,VWS V13.01,2013-10-10 17:57:00,
2013-10-10 12:02:00,60.4,34.1,29.66,WNW,300,3.1,5.4,37,0.00,,CLR,0.00,VWS V13.01,2013-10-10 18:02:00,
2013-10-10 12:07:00,60.6,34.9,29.66,NW,310,2.7,5.4,38,0.00,,CLR,0.00,VWS V13.01,2013-10-10 18:07:00,
2013-10-10 12:12:00,60.6,34.2,29.66,ENE,74,2.7,5.8,37,0.00,,CLR,0.00,VWS V13.01,2013-10-10 18:12:00,
2013-10-10 12:17:00,60.6,34.2,29.66,North,6,0.0,2.7,37,0.00,,CLR,0.00,VWS V13.01,2013-10-10 18:17:00,
2013-10-10 12:22:00,60.8,33.7,29.66,ENE,67,0.0,4.9,36,0.00,,CLR,0.00,VWS V13.01,2013-10-10 18:22:00,
2013-10-10 12:27:00,61.3,34.9,29.66,WSW,253,3.1,4.9,37,0.00,,CLR,0.00,VWS V13.01,2013-10-10 18:27:00,
2013-10-10 12:32:00,61.9,34.7,29.66,NNW,338,2.2,3.1,36,0.00,,CLR,0.00,VWS V13.01,2013-10-10 18:32:00,
2013-10-10 12:37:00,62.2,35.0,29.66,NW,308,3.6,4.0,36,0.00,,CLR,0.00,VWS V13.01,2013-10-10 18:37:00,
2013-10-10 12:42:00,62.4,35.8,29.63,East,84,4.9,5.8,37,0.00,,CLR,0.00,VWS V13.01,2013-10-10 18:42:00,
2013-10-10 12:47:00,61.7,34.5,29.63,North,353,2.2,4.9,36,0.00,,CLR,0.00,VWS V13.01,2013-10-10 18:47:00,
2013-10-10 12:52:00,60.8,34.4,29.63,NW,320,0.0,4.9,37,0.00,,CLR,0.00,VWS V13.01,2013-10-10 18:52:00,
2013-10-10 12:57:00,59.9,34.2,29.63,North,357,0.0,4.9,38,0.00,,CLR,0.00,VWS V13.01,2013-10-10 18:57:00,
2013-10-10 13:02:00,59.4,34.4,29.63,North,353,0.0,0.0,39,0.00,,CLR,0.00,VWS V13.01,2013-10-10 19:02:00,
2013-10-10 13:07:00,59.4,35.1,29.63,NNW,345,0.0,3.1,40,0.00,,CLR,0.00,VWS V13.01,2013-10-10 19:07:00,
2013-10-10 13:12:00,59.4,35.1,29.63,North,0,0.0,3.1,40,0.00,,CLR,0.00,VWS V13.01,2013-10-10 19:12:00,
2013-10-10 13:17:00,59.2,34.9,29.63,NNE,27,0.0,6.3,40,0.00,,CLR,0.00,VWS V13.01,2013-10-10 19:17:00,
2013-10-10 13:22:00,58.8,35.2,29.63,NNE,12,2.2,6.3,41,0.00,,CLR,0.00,VWS V13.01,2013-10-10 19:22:00,
2013-10-10 13:27:00,58.6,35.6,29.63,NNW,337,3.1,6.3,42,0.00,,CLR,0.00,VWS V13.01,2013-10-10 19:27:00,
2013-10-10 13:32:00,58.5,35.5,29.63,NNW,333,3.6,4.0,42,0.00,,CLR,0.00,VWS V13.01,2013-10-10 19:32:00,
2013-10-10 13:37:00,58.3,35.3,29.63,NW,317,5.8,5.8,42,0.00,,CLR,0.00,VWS V13.01,2013-10-10 19:37:00,
2013-10-10 13:42:00,58.3,35.3,29.63,WNW,299,2.2,8.3,42,0.00,,CLR,0.00,VWS V13.01,2013-10-10 19:42:00,
2013-10-10 13:47:00,58.3,35.9,29.63,WSW,249,4.9,4.9,43,0.00,,CLR,0.00,VWS V13.01,2013-10-10 19:47:00,
2013-10-10 13:52:00,58.1,35.7,29.63,NNW,342,0.0,10.1,43,0.00,,CLR,0.00,VWS V13.01,2013-10-10 19:52:00,
2013-10-10 13:57:00,57.9,35.6,29.63,WNW,287,2.2,10.1,43,0.00,,CLR,0.00,VWS V13.01,2013-10-10 19:57:00,
2013-10-10 14:03:00,57.7,35.4,29.63,WNW,294,2.2,7.6,43,0.00,,OVC100,0.00,VWS V13.01,2013-10-10 20:03:00,
2013-10-10 14:08:00,57.6,35.8,29.63,NNW,342,0.0,7.6,44,0.00,,OVC100,0.00,VWS V13.01,2013-10-10 20:08:00,
2013-10-10 14:13:00,57.6,35.8,29.63,WNW,295,4.0,8.3,44,0.00,,OVC100,0.00,VWS V13.01,2013-10-10 20:13:00,
2013-10-10 14:18:00,57.9,36.2,29.63,NW,325,3.6,5.4,44,0.00,,OVC100,0.00,VWS V13.01,2013-10-10 20:18:00,
2013-10-10 14:23:00,57.9,35.6,29.63,NNW,332,2.7,8.3,43,0.00,,OVC100,0.00,VWS V13.01,2013-10-10 20:23:00,
2013-10-10 14:28:00,58.1,35.7,29.63,NW,307,4.0,8.3,43,0.00,,OVC100,0.00,VWS V13.01,2013-10-10 20:28:00,
2013-10-10 14:31:00,59.2,37.3,29.63,East,93,0.0,2.7,44,0.00,,OVC100,0.00,VWS V13.01,2013-10-10 20:31:00,
2013-10-10 14:36:00,60.8,37.6,29.63,West,280,3.1,4.0,42,0.00,,OVC100,0.00,VWS V13.01,2013-10-10 20:36:00,
2013-10-10 14:41:00,61.2,35.4,29.63,NW,317,4.0,5.8,38,0.00,,OVC100,0.00,VWS V13.01,2013-10-10 20:41:00,
2013-10-10 14:46:00,61.0,35.2,29.63,West,279,2.2,4.0,38,0.00,,OVC100,0.00,VWS V13.01,2013-10-10 20:46:00,
2013-10-10 14:51:00,60.8,35.1,29.63,NNW,340,2.7,4.9,38,0.00,,OVC100,0.00,VWS V13.01,2013-10-10 20:51:00,
2013-10-10 14:56:00,60.4,34.7,29.63,East,93,0.0,4.9,38,0.00,,OVC100,0.00,VWS V13.01,2013-10-10 20:56:00,
2013-10-10 15:01:00,60.3,34.6,29.63,South,181,0.0,0.0,38,0.00,,OVC100,0.00,VWS V13.01,2013-10-10 21:01:00,
2013-10-10 15:06:00,59.9,34.2,29.63,NNW,331,0.0,3.1,38,0.00,,FEW100,0.00,VWS V13.01,2013-10-10 21:06:00,
2013-10-10 15:11:00,59.9,34.9,29.63,ESE,116,0.0,3.1,39,0.00,,FEW100,0.00,VWS V13.01,2013-10-10 21:11:00,
2013-10-10 15:16:00,59.9,34.9,29.60,ESE,116,0.0,0.0,39,0.00,,FEW100,0.00,VWS V13.01,2013-10-10 21:16:00,
2013-10-10 15:21:00,60.1,35.1,29.60,SE,137,2.7,2.7,39,0.00,,FEW100,0.00,VWS V13.01,2013-10-10 21:21:00,
2013-10-10 15:26:00,59.9,34.9,29.60,ENE,60,0.0,2.7,39,0.00,,FEW100,0.00,VWS V13.01,2013-10-10 21:26:00,
2013-10-10 15:31:00,59.9,34.9,29.60,ENE,60,0.0,0.0,39,0.00,,FEW100,0.00,VWS V13.01,2013-10-10 21:31:00,
2013-10-10 15:36:00,60.1,35.1,29.60,ENE,60,0.0,0.0,39,0.00,,FEW100,0.00,VWS V13.01,2013-10-10 21:36:00,
2013-10-10 15:41:00,60.1,35.1,29.60,ENE,60,0.0,0.0,39,0.00,,FEW100,0.00,VWS V13.01,2013-10-10 21:41:00,
2013-10-10 15:46:00,60.1,35.1,29.60,ENE,61,0.0,0.0,39,0.00,,FEW100,0.00,VWS V13.01,2013-10-10 21:46:00,
2013-10-10 15:51:00,59.9,35.5,29.60,ENE,77,2.2,3.6,40,0.00,,FEW100,0.00,VWS V13.01,2013-10-10 21:51:00,
2013-10-10 15:56:00,59.5,35.2,29.60,SE,143,3.6,4.0,40,0.00,,FEW100,0.00,VWS V13.01,2013-10-10 21:56:00,
2013-10-10 16:01:00,59.5,35.8,29.60,SE,129,4.0,4.0,41,0.00,,FEW100,0.00,VWS V13.01,2013-10-10 22:01:00,
2013-10-10 16:06:00,59.4,36.3,29.60,ENE,76,3.6,4.0,42,0.00,,FEW100,0.00,VWS V13.01,2013-10-10 22:06:00,
2013-10-10 16:11:00,59.4,36.3,29.60,East,100,2.7,4.0,42,0.00,,FEW100,0.00,VWS V13.01,2013-10-10 22:11:00,
2013-10-10 16:16:00,59.2,36.1,29.60,East,93,2.2,3.1,42,0.00,,FEW130,0.00,VWS V13.01,2013-10-10 22:16:00,
2013-10-10 16:21:00,59.2,36.7,29.60,East,86,3.1,4.0,43,0.00,,FEW130,0.00,VWS V13.01,2013-10-10 22:21:00,
2013-10-10 16:26:00,59.0,37.1,29.60,East,99,2.2,4.9,44,0.00,,FEW130,0.00,VWS V13.01,2013-10-10 22:26:00,
2013-10-10 16:31:00,58.8,37.0,29.60,East,100,0.0,3.1,44,0.00,,FEW130,0.00,VWS V13.01,2013-10-10 22:31:00,
2013-10-10 16:37:00,58.8,37.5,29.60,ENE,75,0.0,4.0,45,0.00,,FEW130,0.00,VWS V13.01,2013-10-10 22:37:00,
2013-10-10 16:42:00,58.6,37.4,29.60,NNW,338,0.0,4.0,45,0.00,,FEW130,0.00,VWS V13.01,2013-10-10 22:42:00,
2013-10-10 16:47:00,58.6,37.4,29.60,WNW,303,2.7,3.1,45,0.00,,-RA,0.00,VWS V13.01,2013-10-10 22:47:00,
2013-10-10 16:52:00,58.8,37.5,29.60,ENE,75,2.7,3.6,45,0.00,,-RA,0.00,VWS V13.01,2013-10-10 22:52:00,
2013-10-10 16:57:00,58.5,37.8,29.60,NW,316,3.1,4.0,46,0.00,,-RA,0.00,VWS V13.01,2013-10-10 22:57:00,
2013-10-10 17:02:00,58.3,37.6,29.60,SSW,200,4.0,4.0,46,0.00,,-RA,0.00,VWS V13.01,2013-10-10 23:02:00,
2013-10-10 17:07:00,57.7,32.3,29.60,SSW,198,3.1,10.1,38,0.00,,-RA,0.00,VWS V13.01,2013-10-10 23:07:00,
2013-10-10 17:12:00,57.0,32.3,29.60,SSE,150,8.3,12.3,39,0.00,,-RA,0.00,VWS V13.01,2013-10-10 23:12:00,
2013-10-10 17:17:00,56.3,31.7,29.60,ESE,102,5.4,9.6,39,0.00,,-RA,0.00,VWS V13.01,2013-10-10 23:17:00,
2013-10-10 17:22:00,55.9,32.0,29.60,SSE,154,2.7,9.6,40,0.00,,-RA,0.00,VWS V13.01,2013-10-10 23:22:00,
2013-10-10 17:27:00,55.4,32.1,29.60,SW,236,4.0,9.6,41,0.00,,-RA,0.00,VWS V13.01,2013-10-10 23:27:00,
2013-10-10 17:32:00,55.0,31.8,29.60,SSW,197,3.6,5.4,41,0.00,,-RA,0.00,VWS V13.01,2013-10-10 23:32:00,
2013-10-10 17:37:00,54.7,32.1,29.60,South,175,2.7,5.4,42,0.00,,-RA,0.00,VWS V13.01,2013-10-10 23:37:00,
2013-10-10 17:42:00,54.5,32.5,29.60,West,259,3.6,6.3,43,0.00,,-RA,0.00,VWS V13.01,2013-10-10 23:42:00,
2013-10-10 17:47:00,54.3,32.9,29.60,WNW,289,3.1,5.8,44,0.00,,FEW050,0.00,VWS V13.01,2013-10-10 23:47:00,
2013-10-10 17:52:00,54.3,33.5,29.60,WSW,251,6.3,8.7,45,0.00,,FEW050,0.00,VWS V13.01,2013-10-10 23:52:00,
2013-10-10 17:57:00,54.5,32.5,29.60,West,268,15.4,15.4,43,0.00,,FEW050,0.00,VWS V13.01,2013-10-10 23:57:00,
2013-10-10 18:02:00,52.9,31.6,29.60,NW,314,13.2,21.9,44,0.00,,CLR,0.00,VWS V13.01,2013-10-11 00:02:00,
2013-10-10 18:07:00,50.4,31.4,29.60,WNW,292,8.7,25.1,48,0.00,,CLR,0.00,VWS V13.01,2013-10-11 00:07:00,
2013-10-10 18:12:00,49.3,31.5,29.60,North,357,4.9,25.1,50,0.00,,CLR,0.00,VWS V13.01,2013-10-11 00:12:00,
2013-10-10 18:17:00,48.9,31.6,29.60,NW,304,3.6,5.4,51,0.00,,CLR,0.00,VWS V13.01,2013-10-11 00:17:00,
2013-10-10 18:22:00,48.6,31.8,29.60,North,357,2.7,6.3,52,0.00,,CLR,0.00,VWS V13.01,2013-10-11 00:22:00,
2013-10-10 18:27:00,48.6,32.2,29.57,North,0,3.1,13.2,53,0.00,,CLR,0.00,VWS V13.01,2013-10-11 00:27:00,
2013-10-10 18:32:00,48.4,32.0,29.57,NNW,330,2.7,6.3,53,0.00,,FEW120,0.00,VWS V13.01,2013-10-11 00:32:00,
2013-10-10 18:37:00,48.6,32.2,29.57,SSW,213,4.0,11.0,53,0.00,,FEW120,0.00,VWS V13.01,2013-10-11 00:37:00,
2013-10-10 18:42:00,48.9,32.6,29.57,NW,313,6.3,11.0,53,0.00,,FEW120,0.00,VWS V13.01,2013-10-11 00:42:00,
2013-10-10 18:47:00,49.1,32.2,29.57,NNW,328,6.3,8.1,52,0.00,,SCT120,0.00,VWS V13.01,2013-10-11 00:47:00,
2013-10-10 18:52:00,49.3,31.9,29.57,West,274,5.8,10.5,51,0.00,,SCT120,0.00,VWS V13.01,2013-10-11 00:52:00,
2013-10-10 18:57:00,49.3,31.9,29.60,WNW,287,4.9,10.5,51,0.00,,SCT120,0.00,VWS V13.01,2013-10-11 00:57:00,
2013-10-10 19:02:00,49.5,32.1,29.60,South,185,2.2,3.6,51,0.00,,FEW070,0.00,VWS V13.01,2013-10-11 01:02:00,
2013-10-10 19:07:00,49.5,32.1,29.60,WSW,257,2.7,8.3,51,0.00,,FEW070,0.00,VWS V13.01,2013-10-11 01:07:00,
2013-10-10 19:12:00,49.3,31.9,29.57,NW,310,0.0,8.3,51,0.00,,FEW070,0.00,VWS V13.01,2013-10-11 01:12:00,
2013-10-10 19:17:00,49.1,32.2,29.57,NW,304,3.1,4.0,52,0.00,,FEW070,0.00,VWS V13.01,2013-10-11 01:17:00,
2013-10-10 19:22:00,49.3,32.4,29.57,WSW,242,3.6,6.3,52,0.00,,FEW070,0.00,VWS V13.01,2013-10-11 01:22:00,
2013-10-10 19:27:00,49.3,32.4,29.60,SSW,194,2.7,6.7,52,0.00,,FEW070,0.00,VWS V13.01,2013-10-11 01:27:00,
2013-10-10 19:32:00,49.1,32.2,29.60,SW,214,2.2,6.3,52,0.00,,FEW070,0.00,VWS V13.01,2013-10-11 01:32:00,
2013-10-10 19:37:00,49.3,31.9,29.60,SW,219,0.0,6.3,51,0.00,,FEW070,0.00,VWS V13.01,2013-10-11 01:37:00,
2013-10-10 19:43:00,49.3,31.9,29.60,SW,234,0.0,6.3,51,0.00,,FEW070,0.00,VWS V13.01,2013-10-11 01:43:00,
2013-10-10 19:48:00,49.5,31.6,29.60,WSW,253,0.0,2.2,50,0.00,,FEW070,0.00,VWS V13.01,2013-10-11 01:48:00,
2013-10-10 19:53:00,49.5,31.6,29.60,SSE,160,0.0,2.2,50,0.00,,FEW070,0.00,VWS V13.01,2013-10-11 01:53:00,
2013-10-10 19:58:00,49.6,31.8,29.60,ESE,104,2.7,2.7,50,0.00,,FEW070,0.00,VWS V13.01,2013-10-11 01:58:00,
2013-10-10 20:03:00,49.6,31.8,29.60,East,97,2.2,2.7,50,0.00,,FEW070,0.00,VWS V13.01,2013-10-11 02:03:00,
2013-10-10 20:08:00,49.5,31.1,29.60,SE,136,2.7,3.6,49,0.00,,FEW070,0.00,VWS V13.01,2013-10-11 02:08:00,
2013-10-10 20:13:00,49.5,31.1,29.57,SE,138,2.7,3.6,49,0.00,,FEW070,0.00,VWS V13.01,2013-10-11 02:13:00,
2013-10-10 20:18:00,49.3,31.5,29.57,SE,137,2.2,2.7,50,0.00,,OVC085,0.00,VWS V13.01,2013-10-11 02:18:00,
2013-10-10 20:23:00,49.1,31.3,29.57,SE,137,0.0,2.7,50,0.00,,OVC085,0.00,VWS V13.01,2013-10-11 02:23:00,
2013-10-10 20:28:00,49.1,31.3,29.57,SE,137,0.0,2.7,50,0.00,,OVC085,0.00,VWS V13.01,2013-10-11 02:28:00,
2013-10-10 20:33:00,48.9,31.1,29.57,SE,137,0.0,0.0,50,0.00,,OVC085,0.00,VWS V13.01,2013-10-11 02:33:00,
2013-10-10 20:38:00,49.1,31.8,29.57,SE,137,0.0,0.0,51,0.00,,OVC085,0.00,VWS V13.01,2013-10-11 02:38:00,
2013-10-10 20:43:00,49.1,31.8,29.57,SE,138,0.0,0.0,51,0.00,,OVC085,0.00,VWS V13.01,2013-10-11 02:43:00,
2013-10-10 20:48:00,49.3,31.9,29.57,East,82,2.7,2.7,51,0.00,,OVC085,0.00,VWS V13.01,2013-10-11 02:48:00,
2013-10-10 20:53:00,49.5,32.1,29.57,East,81,0.0,2.7,51,0.00,,OVC085,0.00,VWS V13.01,2013-10-11 02:53:00,
2013-10-10 20:58:00,49.5,32.1,29.57,East,81,0.0,2.7,51,0.00,,OVC085,0.00,VWS V13.01,2013-10-11 02:58:00,
2013-10-10 21:03:00,49.5,31.6,29.57,ENE,77,0.0,2.2,50,0.00,,BKN095,0.00,VWS V13.01,2013-10-11 03:03:00,
2013-10-10 21:08:00,49.5,31.6,29.57,ENE,77,0.0,2.2,50,0.00,,BKN095,0.00,VWS V13.01,2013-10-11 03:08:00,
2013-10-10 21:13:00,49.5,31.6,29.57,ENE,77,3.6,3.6,50,0.00,,BKN095,0.00,VWS V13.01,2013-10-11 03:13:00,
2013-10-10 21:18:00,49.3,31.9,29.57,WSW,242,3.1,3.6,51,0.00,,BKN095,0.00,VWS V13.01,2013-10-11 03:18:00,
2013-10-10 21:23:00,49.3,31.9,29.57,SW,222,2.2,4.0,51,0.00,,BKN095,0.00,VWS V13.01,2013-10-11 03:23:00,
2013-10-10 21:28:00,49.3,31.9,29.57,SW,230,0.0,4.0,51,0.00,,BKN095,0.00,VWS V13.01,2013-10-11 03:28:00,
2013-10-10 21:33:00,49.1,31.8,29.57,SW,230,0.0,0.0,51,0.00,,BKN100,0.00,VWS V13.01,2013-10-11 03:33:00,
2013-10-10 21:38:00,49.1,31.8,29.57,SW,230,0.0,2.7,51,0.00,,BKN100,0.00,VWS V13.01,2013-10-11 03:38:00,
2013-10-10 21:43:00,49.1,31.8,29.57,SW,234,0.0,4.0,51,0.00,,BKN100,0.00,VWS V13.01,2013-10-11 03:43:00,
2013-10-10 21:48:00,49.1,31.8,29.57,SW,234,0.0,0.0,51,0.00,,BKN090,0.00,VWS V13.01,2013-10-11 03:48:00,
2013-10-10 21:53:00,48.9,31.6,29.57,SW,234,0.0,0.0,51,0.00,,BKN090,0.00,VWS V13.01,2013-10-11 03:53:00,
2013-10-10 21:58:00,48.7,31.4,29.60,SW,234,0.0,0.0,51,0.00,,BKN090,0.00,VWS V13.01,2013-10-11 03:58:00,
2013-10-10 22:01:00,48.7,31.4,29.60,SW,234,0.0,0.0,51,0.00,,BKN090,0.00,VWS V13.01,2013-10-11 04:01:00,
2013-10-10 22:06:00,48.4,31.6,29.60,East,96,2.7,2.7,52,0.00,,BKN095,0.00,VWS V13.01,2013-10-11 04:06:00,
2013-10-10 22:11:00,48.0,31.2,29.57,East,96,2.2,3.1,52,0.00,,BKN095,0.00,VWS V13.01,2013-10-11 04:11:00,
2013-10-10 22:16:00,47.5,31.2,29.57,East,96,0.0,2.7,53,0.00,,-RA,0.00,VWS V13.01,2013-10-11 04:16:00,
2013-10-10 22:21:00,47.1,31.4,29.57,ENE,75,0.0,4.5,54,0.00,,-RA,0.00,VWS V13.01,2013-10-11 04:21:00,
2013-10-10 22:27:00,47.3,32.0,29.57,ENE,75,0.0,4.5,55,0.00,,-RA,0.00,VWS V13.01,2013-10-11 04:27:00,
2013-10-10 22:31:00,47.1,31.8,29.57,ENE,75,0.0,0.0,55,0.00,,-RA,0.00,VWS V13.01,2013-10-11 04:31:00,
2013-10-10 22:36:00,47.1,31.8,29.57,ENE,75,0.0,0.0,55,0.00,,-RA,0.00,VWS V13.01,2013-10-11 04:36:00,
2013-10-10 22:42:00,46.8,31.5,29.60,ENE,75,0.0,0.0,55,0.00,,-RA,0.00,VWS V13.01,2013-10-11 04:42:00,
2013-10-10 22:47:00,46.6,31.3,29.60,East,86,2.7,2.7,55,0.00,,BKN110,0.00,VWS V13.01,2013-10-11 04:47:00,
2013-10-10 22:52:00,46.6,32.2,29.60,East,99,2.7,4.0,57,0.00,,BKN110,0.00,VWS V13.01,2013-10-11 04:52:00,
2013-10-10 22:57:00,46.4,32.0,29.60,East,98,0.0,4.0,57,0.00,,BKN110,0.00,VWS V13.01,2013-10-11 04:57:00,
2013-10-10 23:02:00,46.2,32.3,29.60,East,98,2.2,2.7,58,0.00,,SCT100,0.00,VWS V13.01,2013-10-11 05:02:00,
2013-10-10 23:07:00,46.2,32.3,29.60,East,98,0.0,2.7,58,0.00,,SCT100,0.00,VWS V13.01,2013-10-11 05:07:00,
2013-10-10 23:12:00,45.9,31.9,29.57,East,99,0.0,2.7,58,0.00,,SCT100,0.00,VWS V13.01,2013-10-11 05:12:00,
2013-10-10 23:17:00,45.7,32.2,29.57,East,98,0.0,0.0,59,0.00,,SCT100,0.00,VWS V13.01,2013-10-11 05:17:00,
2013-10-10 23:22:00,45.5,32.0,29.57,East,99,0.0,0.0,59,0.00,,SCT100,0.00,VWS V13.01,2013-10-11 05:22:00,
2013-10-10 23:27:00,45.3,31.9,29.57,East,98,0.0,0.0,59,0.00,,SCT100,0.00,VWS V13.01,2013-10-11 05:27:00,
2013-10-10 23:32:00,45.0,31.9,29.57,East,99,0.0,0.0,60,0.00,,SCT100,0.00,VWS V13.01,2013-10-11 05:32:00,
2013-10-10 23:37:00,44.6,31.6,29.57,East,99,0.0,0.0,60,0.00,,SCT100,0.00,VWS V13.01,2013-10-11 05:37:00,
2013-10-10 23:42:00,44.4,31.8,29.57,East,98,0.0,0.0,61,0.00,,SCT100,0.00,VWS V13.01,2013-10-11 05:42:00,
2013-10-10 23:47:00,44.2,31.7,29.57,East,99,0.0,0.0,61,0.00,,SCT100,0.00,VWS V13.01,2013-10-11 05:47:00,
2013-10-10 23:52:00,44.1,31.9,29.57,East,101,0.0,2.7,62,0.00,,SCT100,0.00,VWS V13.01,2013-10-11 05:52:00,
2013-10-10 23:57:00,43.9,31.7,29.57,East,101,0.0,2.7,62,0.00,,SCT100,0.00,VWS V13.01,2013-10-11 05:57:00,